createdAt,value
2023-02-21T00:02:36.596Z,0.50
2023-02-21T00:05:57.618Z,0.20
2023-02-21T00:09:22.031Z,0.40
2023-02-21T00:12:43.090Z,0.40
2023-02-21T00:16:05.947Z,0.30
2023-02-21T00:19:27.332Z,0.30
2023-02-21T00:22:52.374Z,0.30
2023-02-21T00:26:16.564Z,0.30
2023-02-21T00:29:42.099Z,0.30
2023-02-21T00:33:07.441Z,0.30
2023-02-21T00:36:30.068Z,0.22
2023-02-21T00:39:51.383Z,0.25
2023-02-21T00:43:22.765Z,0.40
2023-02-21T00:46:46.787Z,0.35
2023-02-21T00:50:17.585Z,0.17
2023-02-21T00:53:43.530Z,0.20
2023-02-21T00:57:09.095Z,0.30
2023-02-21T01:00:36.603Z,0.38
2023-02-21T01:03:57.628Z,0.30
2023-02-21T01:07:20.129Z,0.50
2023-02-21T01:10:41.534Z,0.60
2023-02-21T01:14:05.252Z,0.45
2023-02-21T01:17:28.603Z,0.40
2023-02-21T01:20:52.091Z,0.30
2023-02-21T01:24:14.332Z,0.30
2023-02-21T01:27:36.283Z,0.70
2023-02-21T01:30:57.657Z,0.30
2023-02-21T01:34:18.572Z,0.30
2023-02-21T01:37:39.787Z,0.30
2023-02-21T01:41:03.597Z,0.28
2023-02-21T01:44:26.317Z,0.20
2023-02-21T01:47:48.538Z,0.38
2023-02-21T01:51:12.085Z,0.40
2023-02-21T01:54:37.482Z,0.30
2023-02-21T01:58:04.762Z,0.40
2023-02-21T02:01:30.644Z,0.38
2023-02-21T02:04:52.649Z,0.30
2023-02-21T02:08:14.656Z,0.28
2023-02-21T02:11:42.836Z,0.30
2023-02-21T02:15:08.149Z,0.30
2023-02-21T02:18:20.145Z,0.30
2023-02-21T02:21:43.173Z,0.30
2023-02-21T02:24:57.200Z,0.30
2023-02-21T02:28:24.338Z,0.30
2023-02-21T02:31:40.570Z,0.30
2023-02-21T02:34:51.488Z,0.40
2023-02-21T02:38:02.362Z,0.38
2023-02-21T02:41:09.674Z,0.30
2023-02-21T02:44:16.520Z,0.30
2023-02-21T02:47:21.495Z,0.30
2023-02-21T02:50:31.073Z,0.50
2023-02-21T02:53:36.288Z,0.30
2023-02-21T02:56:42.317Z,0.30
2023-02-21T02:59:53.125Z,0.40
2023-02-21T03:03:06.922Z,0.30
2023-02-21T03:06:25.416Z,0.30
2023-02-21T03:09:34.201Z,0.40
2023-02-21T03:12:46.642Z,0.30
2023-02-21T03:15:54.906Z,0.20
2023-02-21T03:19:00.350Z,0.30
2023-02-21T03:22:07.186Z,0.20
2023-02-21T03:25:14.050Z,0.30
2023-02-21T03:28:19.984Z,0.32
2023-02-21T03:31:30.297Z,0.30
2023-02-21T03:34:35.929Z,0.30
2023-02-21T03:37:45.380Z,0.28
2023-02-21T03:40:49.958Z,0.30
2023-02-21T03:43:56.939Z,0.32
2023-02-21T03:47:00.560Z,0.30
2023-02-21T03:50:07.612Z,0.30
2023-02-21T03:53:16.264Z,0.30
2023-02-21T03:56:24.426Z,0.30
2023-02-21T03:59:48.928Z,0.30
2023-02-21T04:02:58.125Z,0.30
2023-02-21T04:06:14.427Z,0.30
2023-02-21T04:09:19.897Z,0.30
2023-02-21T04:12:27.252Z,0.40
2023-02-21T04:15:31.129Z,0.30
2023-02-21T04:18:37.609Z,0.35
2023-02-21T04:21:43.978Z,0.35
2023-02-21T04:24:49.448Z,0.50
2023-02-21T04:27:54.639Z,0.50
2023-02-21T04:31:02.499Z,0.60
2023-02-21T04:34:12.166Z,0.52
2023-02-21T04:37:25.586Z,0.50
2023-02-21T04:40:32.459Z,0.80
2023-02-21T04:43:36.157Z,0.50
2023-02-21T04:46:40.390Z,0.55
2023-02-21T04:49:51.638Z,0.60
2023-02-21T04:52:55.480Z,0.50
2023-02-21T04:56:00.459Z,0.57
2023-02-21T04:59:09.813Z,0.50
2023-02-21T05:02:17.842Z,0.90
2023-02-21T05:05:21.438Z,0.77
2023-02-21T05:08:33.938Z,0.82
2023-02-21T05:11:41.701Z,1.02
2023-02-21T05:14:48.040Z,0.60
2023-02-21T05:17:54.007Z,0.80
2023-02-21T05:20:59.380Z,0.93
2023-02-21T05:24:05.094Z,0.60
2023-02-21T05:27:11.275Z,0.90
2023-02-21T05:30:15.868Z,0.70
2023-02-21T05:33:22.525Z,0.90
2023-02-21T05:36:26.504Z,0.80
2023-02-21T05:39:34.341Z,0.98
2023-02-21T05:42:42.844Z,0.88
2023-02-21T05:45:50.292Z,1.08
2023-02-21T05:48:57.123Z,1.25
2023-02-21T05:52:01.459Z,1.05
2023-02-21T05:55:13.834Z,1.20
2023-02-21T05:58:18.936Z,1.15
2023-02-21T06:01:24.407Z,1.05
2023-02-21T06:04:37.197Z,0.70
2023-02-21T06:07:41.559Z,1.48
2023-02-21T06:10:46.156Z,1.30
2023-02-21T06:13:53.538Z,1.90
2023-02-21T06:17:00.167Z,1.40
2023-02-21T06:20:04.401Z,1.27
2023-02-21T06:23:09.951Z,1.38
2023-02-21T06:26:22.749Z,1.73
2023-02-21T06:29:27.557Z,1.23
2023-02-21T06:32:32.004Z,1.83
2023-02-21T06:35:35.661Z,1.10
2023-02-21T06:38:40.469Z,1.25
2023-02-21T06:41:47.349Z,1.67
2023-02-21T06:44:52.547Z,1.30
2023-02-21T06:48:01.300Z,1.63
2023-02-21T06:51:06.968Z,1.77
2023-02-21T06:54:10.799Z,3.97
2023-02-21T06:57:20.015Z,3.78
2023-02-21T07:00:28.182Z,1.95
2023-02-21T07:03:33.266Z,2.58
2023-02-21T07:06:39.330Z,3.78
2023-02-21T07:09:43.706Z,2.80
2023-02-21T07:12:53.108Z,2.65
2023-02-21T07:15:58.388Z,4.88
2023-02-21T07:19:02.345Z,2.95
2023-02-21T07:22:06.206Z,2.13
2023-02-21T07:25:33.916Z,1.33
2023-02-21T07:28:40.910Z,1.55
2023-02-21T07:31:46.499Z,1.80
2023-02-21T07:34:50.870Z,1.63
2023-02-21T07:37:56.667Z,1.58
2023-02-21T07:41:02.790Z,1.95
2023-02-21T07:45:00.183Z,1.60
2023-02-21T07:48:24.734Z,1.80
2023-02-21T07:51:32.074Z,1.67
2023-02-21T07:54:41.234Z,1.30
2023-02-21T07:57:44.925Z,1.27
2023-02-21T08:00:49.295Z,1.65
2023-02-21T08:04:10.322Z,1.08
2023-02-21T08:07:27.786Z,2.08
2023-02-21T08:15:19.903Z,1.80
2023-02-21T08:23:08.450Z,1.48
2023-02-21T08:27:00.447Z,1.52
2023-02-21T08:33:40.874Z,6.03
2023-02-21T08:36:45.169Z,8.98
2023-02-21T08:39:48.818Z,5.90
2023-02-21T08:42:56.311Z,2.40
2023-02-21T08:46:06.649Z,1.90
2023-02-21T08:49:17.269Z,1.73
2023-02-21T08:52:23.599Z,2.22
2023-02-21T08:55:27.068Z,2.42
2023-02-21T08:58:31.969Z,1.90
2023-02-21T09:06:12.808Z,3.55
2023-02-21T09:09:20.466Z,1.63
2023-02-21T09:12:24.649Z,1.35
2023-02-21T09:15:30.019Z,2.08
2023-02-21T09:18:34.039Z,1.77
2023-02-21T09:21:45.804Z,1.25
2023-02-21T09:24:50.326Z,1.67
2023-02-21T09:27:59.080Z,1.63
2023-02-21T09:31:05.102Z,1.42
2023-02-21T09:34:10.857Z,1.75
2023-02-21T09:37:15.184Z,2.08
2023-02-21T09:40:27.177Z,1.30
2023-02-21T09:43:52.801Z,1.50
2023-02-21T09:46:59.396Z,1.90
2023-02-21T09:50:29.455Z,1.65
2023-02-21T09:53:34.797Z,2.22
2023-02-21T09:56:40.717Z,2.25
2023-02-21T09:59:52.348Z,1.85
2023-02-21T10:03:03.130Z,1.52
2023-02-21T10:06:16.012Z,1.85
2023-02-21T10:09:27.256Z,1.70
2023-02-21T10:12:35.512Z,1.45
2023-02-21T10:15:54.210Z,1.58
2023-02-21T10:19:16.011Z,1.45
2023-02-21T10:32:21.073Z,1.70
2023-02-21T10:35:30.738Z,1.52
2023-02-21T10:38:56.675Z,2.00
2023-02-21T10:42:00.672Z,1.58
2023-02-21T10:50:38.202Z,1.77
2023-02-21T10:53:55.327Z,1.55
2023-02-21T10:57:04.436Z,1.15
2023-02-21T11:00:14.024Z,1.85
2023-02-21T11:03:31.758Z,1.60
2023-02-21T11:07:14.358Z,1.45
2023-02-21T11:10:36.919Z,1.92
2023-02-21T11:14:18.414Z,1.35
2023-02-21T11:22:42.901Z,2.10
2023-02-21T11:26:18.448Z,1.40
2023-02-21T11:29:35.820Z,1.77
2023-02-21T11:32:50.662Z,1.75
2023-02-21T11:46:38.063Z,2.08
2023-02-21T11:49:52.298Z,1.30
2023-02-21T11:52:58.397Z,1.70
2023-02-21T11:56:06.409Z,1.90
2023-02-21T11:59:33.758Z,1.30
2023-02-21T12:03:38.003Z,2.15
2023-02-21T12:06:55.353Z,1.15
2023-02-21T12:10:09.265Z,1.48
2023-02-21T12:13:31.392Z,1.40
2023-02-21T12:17:29.556Z,1.60
2023-02-21T12:20:53.987Z,1.80
2023-02-21T12:24:04.298Z,1.27
2023-02-21T12:32:03.494Z,1.08
2023-02-21T12:35:34.641Z,1.30
2023-02-21T12:38:46.935Z,1.35
2023-02-21T12:42:02.498Z,2.65
2023-02-21T12:50:20.474Z,1.20
2023-02-21T13:03:31.140Z,1.33
2023-02-21T13:06:38.327Z,2.65
2023-02-21T13:10:03.320Z,2.20
2023-02-21T13:13:20.151Z,1.02
2023-02-21T13:16:23.617Z,2.30
2023-02-21T13:19:41.202Z,1.27
2023-02-21T13:23:20.670Z,1.83
2023-02-21T13:27:00.056Z,1.08
2023-02-21T13:30:07.865Z,1.15
2023-02-21T13:33:24.664Z,1.58
2023-02-21T13:36:31.462Z,1.88
2023-02-21T13:39:44.890Z,2.17
2023-02-21T13:42:48.548Z,1.02
2023-02-21T13:45:53.534Z,1.42
2023-02-21T13:49:15.192Z,1.30
2023-02-21T13:52:37.087Z,1.23
2023-02-21T13:55:41.945Z,1.50
2023-02-21T13:58:49.067Z,1.35
2023-02-21T14:01:52.663Z,1.55
2023-02-21T14:05:09.293Z,1.70
2023-02-21T14:08:14.995Z,1.05
2023-02-21T14:11:24.551Z,1.15
2023-02-21T14:14:29.699Z,2.10
2023-02-21T14:21:31.411Z,1.50
2023-02-21T14:24:38.000Z,0.88
2023-02-21T14:27:43.556Z,1.23
2023-02-21T14:30:47.313Z,1.77
2023-02-21T14:33:54.790Z,3.90
2023-02-21T14:36:59.704Z,2.28
2023-02-21T14:40:09.493Z,1.15
2023-02-21T14:43:24.255Z,1.17
2023-02-21T14:46:41.754Z,1.90
2023-02-21T14:49:57.915Z,1.55
2023-02-21T14:53:21.790Z,1.15
2023-02-21T14:56:31.812Z,1.70
2023-02-21T14:59:56.200Z,1.48
2023-02-21T15:03:21.631Z,1.25
2023-02-21T15:06:28.513Z,1.27
2023-02-21T15:09:32.117Z,1.45
2023-02-21T15:12:37.590Z,1.42
2023-02-21T15:15:46.989Z,1.00
2023-02-21T15:19:01.627Z,1.40
2023-02-21T15:22:25.171Z,1.00
2023-02-21T15:25:30.106Z,1.13
2023-02-21T15:28:34.948Z,0.70
2023-02-21T15:31:42.139Z,0.70
2023-02-21T15:34:47.293Z,2.28
2023-02-21T15:37:50.810Z,1.40
2023-02-21T15:40:57.015Z,1.33
2023-02-21T15:44:03.466Z,1.63
2023-02-21T15:47:10.941Z,1.52
2023-02-21T15:50:16.673Z,1.30
2023-02-21T15:53:21.726Z,1.25
2023-02-21T15:56:28.528Z,1.23
2023-02-21T15:59:32.778Z,1.00
2023-02-21T16:02:37.647Z,1.10
2023-02-21T16:05:41.424Z,1.10
2023-02-21T16:08:53.242Z,1.20
2023-02-21T16:11:58.541Z,0.93
2023-02-21T16:15:03.312Z,0.80
2023-02-21T16:18:09.148Z,1.00
2023-02-21T16:21:23.288Z,1.02
2023-02-21T16:24:30.788Z,1.05
2023-02-21T16:27:34.479Z,1.27
2023-02-21T16:30:39.135Z,1.30
2023-02-21T16:33:44.341Z,0.90
2023-02-21T16:36:48.377Z,1.30
2023-02-21T16:39:54.178Z,1.45
2023-02-21T16:42:58.856Z,1.58
2023-02-21T16:46:02.524Z,1.25
2023-02-21T16:49:07.345Z,1.00
2023-02-21T16:52:12.139Z,1.15
2023-02-21T16:55:16.930Z,0.90
2023-02-21T16:58:24.587Z,1.30
2023-02-21T17:01:29.267Z,1.00
2023-02-21T17:04:34.293Z,0.90
2023-02-21T17:07:38.063Z,1.08
2023-02-21T17:10:41.679Z,1.13
2023-02-21T17:13:46.042Z,0.90
2023-02-21T17:16:49.761Z,0.80
2023-02-21T17:19:54.475Z,0.82
2023-02-21T17:22:59.857Z,1.20
2023-02-21T17:26:03.698Z,1.20
2023-02-21T17:29:07.793Z,1.05
2023-02-21T17:32:11.918Z,1.00
2023-02-21T17:35:17.399Z,1.20
2023-02-21T17:38:21.046Z,1.20
2023-02-21T17:41:24.983Z,1.52
2023-02-21T17:44:29.030Z,1.02
2023-02-21T17:47:32.601Z,0.93
2023-02-21T17:50:38.575Z,1.25
2023-02-21T17:53:42.272Z,1.10
2023-02-21T17:56:45.906Z,0.82
2023-02-21T17:59:49.819Z,1.10
2023-02-21T18:02:53.964Z,1.27
2023-02-21T18:06:00.449Z,0.98
2023-02-21T18:09:05.744Z,0.95
2023-02-21T18:12:09.628Z,0.98
2023-02-21T18:15:13.699Z,1.15
2023-02-21T18:18:17.692Z,1.00
2023-02-21T18:21:23.271Z,0.88
2023-02-21T18:24:27.756Z,1.23
2023-02-21T18:27:31.207Z,1.13
2023-02-21T18:30:34.745Z,1.33
2023-02-21T18:33:38.715Z,1.02
2023-02-21T18:36:49.564Z,1.10
2023-02-21T18:39:53.878Z,1.08
2023-02-21T18:42:57.569Z,1.25
2023-02-21T18:46:01.021Z,1.05
2023-02-21T18:49:04.513Z,1.10
2023-02-21T18:52:10.201Z,1.23
2023-02-21T18:55:13.747Z,1.33
2023-02-21T18:58:17.298Z,1.05
2023-02-21T19:01:25.219Z,1.00
2023-02-21T19:04:29.043Z,1.40
2023-02-21T19:07:36.341Z,1.48
2023-02-21T19:10:39.908Z,0.80
2023-02-21T19:13:47.617Z,1.08
2023-02-21T19:16:51.195Z,0.98
2023-02-21T19:19:54.722Z,1.48
2023-02-21T19:22:59.727Z,1.40
2023-02-21T19:26:03.773Z,1.10
2023-02-21T19:29:08.497Z,0.98
2023-02-21T19:32:12.426Z,1.02
2023-02-21T19:35:19.413Z,1.02
2023-02-21T19:38:24.787Z,0.90
2023-02-21T19:41:28.307Z,1.10
2023-02-21T19:44:51.243Z,1.20
2023-02-21T19:48:28.008Z,1.30
2023-02-21T20:01:09.831Z,0.93
2023-02-21T20:04:13.400Z,1.10
2023-02-21T20:07:17.314Z,1.35
2023-02-21T20:10:25.353Z,2.60
2023-02-21T20:13:28.898Z,2.17
2023-02-21T20:16:38.897Z,1.55
2023-02-21T20:19:57.738Z,1.33
2023-02-21T20:23:13.558Z,1.73
2023-02-21T20:26:29.603Z,3.00
2023-02-21T20:29:36.155Z,0.98
2023-02-21T20:33:16.535Z,1.40
2023-02-21T20:36:52.290Z,2.70
2023-02-21T20:40:10.522Z,3.38
2023-02-21T20:43:33.174Z,3.78
2023-02-21T20:47:03.281Z,2.63
2023-02-21T20:50:16.679Z,3.03
2023-02-21T20:53:24.940Z,2.30
2023-02-21T20:56:54.696Z,2.10
2023-02-21T21:00:57.236Z,3.10
2023-02-21T21:04:58.149Z,3.70
2023-02-21T21:08:04.720Z,2.42
2023-02-21T21:20:29.326Z,1.98
2023-02-21T21:24:22.310Z,1.77
2023-02-21T21:33:07.768Z,1.95
2023-02-21T21:36:13.737Z,1.73
2023-02-21T21:39:23.260Z,2.00
2023-02-21T21:42:32.804Z,2.13
2023-02-21T21:45:44.279Z,2.40
2023-02-21T21:48:49.226Z,2.30
2023-02-21T21:51:55.522Z,2.35
2023-02-21T21:54:59.276Z,2.30
2023-02-21T21:58:02.711Z,2.25
2023-02-21T22:01:06.518Z,2.80
2023-02-21T22:04:13.536Z,2.63
2023-02-21T22:07:17.441Z,2.70
2023-02-21T22:10:21.323Z,2.42
2023-02-21T22:13:29.091Z,2.55
2023-02-21T22:16:36.366Z,2.47
2023-02-21T22:19:45.522Z,2.80
2023-02-21T22:22:50.071Z,2.40
2023-02-21T22:25:53.521Z,2.22
2023-02-21T22:28:58.076Z,2.03
2023-02-21T22:32:01.496Z,2.15
2023-02-21T22:35:06.746Z,1.63
2023-02-21T22:38:14.232Z,2.15
2023-02-21T22:41:18.821Z,1.58
2023-02-21T22:44:24.610Z,2.15
2023-02-21T22:47:28.115Z,1.90
2023-02-21T22:50:36.670Z,1.80
2023-02-21T22:53:40.129Z,2.75
2023-02-21T22:56:50.701Z,1.85
2023-02-21T22:59:57.623Z,1.80
2023-02-21T23:03:01.470Z,2.13
2023-02-21T23:06:07.029Z,1.67
2023-02-21T23:09:13.000Z,1.63
2023-02-21T23:12:16.443Z,1.40
2023-02-21T23:15:20.535Z,1.58
2023-02-21T23:18:26.017Z,1.63
2023-02-21T23:21:30.914Z,1.60
2023-02-21T23:24:34.836Z,2.40
2023-02-21T23:27:38.463Z,2.20
2023-02-21T23:30:42.672Z,1.65
2023-02-21T23:33:48.649Z,1.88
2023-02-21T23:36:55.134Z,1.92
2023-02-21T23:39:58.435Z,1.92
2023-02-21T23:43:02.175Z,1.80
2023-02-21T23:46:07.340Z,1.98
2023-02-21T23:49:11.642Z,1.77
2023-02-21T23:52:17.631Z,2.13
2023-02-21T23:55:25.354Z,2.33
2023-02-21T23:58:31.409Z,2.55
